sensor_id;sensor_type;location;lat;lon;timestamp;temperature;humidity
18317;DHT22;9284;52.298;21.164;2023-12-29T00:01:18;5.90;99.90
18317;DHT22;9284;52.298;21.164;2023-12-29T00:03:47;5.90;99.90
18317;DHT22;9284;52.298;21.164;2023-12-29T00:06:15;6.00;99.90
18317;DHT22;9284;52.298;21.164;2023-12-29T00:08:44;5.90;99.90
18317;DHT22;9284;52.298;21.164;2023-12-29T00:11:17;6.00;99.90
18317;DHT22;9284;52.298;21.164;2023-12-29T00:13:45;5.90;99.90
18317;DHT22;9284;52.298;21.164;2023-12-29T00:16:14;5.90;99.90
18317;DHT22;9284;52.298;21.164;2023-12-29T00:18:44;6.00;99.90
18317;DHT22;9284;52.298;21.164;2023-12-29T00:21:13;5.90;1.00
18317;DHT22;9284;52.298;21.164;2023-12-29T00:23:44;5.90;1.00
18317;DHT22;9284;52.298;21.164;2023-12-29T00:26:12;5.90;1.00
18317;DHT22;9284;52.298;21.164;2023-12-29T00:28:41;6.10;99.90
18317;DHT22;9284;52.298;21.164;2023-12-29T00:31:13;6.10;99.90
18317;DHT22;9284;52.298;21.164;2023-12-29T00:33:43;6.10;99.90
18317;DHT22;9284;52.298;21.164;2023-12-29T00:36:14;6.20;99.90
18317;DHT22;9284;52.298;21.164;2023-12-29T00:38:43;6.10;99.90
18317;DHT22;9284;52.298;21.164;2023-12-29T00:41:11;6.20;99.90
18317;DHT22;9284;52.298;21.164;2023-12-29T00:43:41;6.20;99.90
18317;DHT22;9284;52.298;21.164;2023-12-29T00:46:09;6.30;99.90
18317;DHT22;9284;52.298;21.164;2023-12-29T00:48:37;6.40;99.90
18317;DHT22;9284;52.298;21.164;2023-12-29T00:51:07;6.30;99.90
18317;DHT22;9284;52.298;21.164;2023-12-29T00:53:36;6.40;99.90
18317;DHT22;9284;52.298;21.164;2023-12-29T00:56:10;6.20;99.90
18317;DHT22;9284;52.298;21.164;2023-12-29T00:58:38;6.10;99.90
18317;DHT22;9284;52.298;21.164;2023-12-29T01:01:07;6.40;99.90
18317;DHT22;9284;52.298;21.164;2023-12-29T01:03:39;6.00;99.90
18317;DHT22;9284;52.298;21.164;2023-12-29T01:06:09;5.90;99.90
18317;DHT22;9284;52.298;21.164;2023-12-29T01:08:37;5.90;99.90
18317;DHT22;9284;52.298;21.164;2023-12-29T01:11:06;5.80;99.90
18317;DHT22;9284;52.298;21.164;2023-12-29T01:13:34;6.30;1.00
18317;DHT22;9284;52.298;21.164;2023-12-29T01:16:05;5.70;1.00
18317;DHT22;9284;52.298;21.164;2023-12-29T01:18:47;5.60;1.00
18317;DHT22;9284;52.298;21.164;2023-12-29T01:21:18;5.70;1.00
18317;DHT22;9284;52.298;21.164;2023-12-29T01:23:46;5.60;1.00
18317;DHT22;9284;52.298;21.164;2023-12-29T01:26:15;5.40;1.00
18317;DHT22;9284;52.298;21.164;2023-12-29T01:28:43;5.40;1.00
18317;DHT22;9284;52.298;21.164;2023-12-29T01:31:13;5.40;1.00
18317;DHT22;9284;52.298;21.164;2023-12-29T01:33:42;5.40;1.00
18317;DHT22;9284;52.298;21.164;2023-12-29T01:36:18;5.20;1.00
18317;DHT22;9284;52.298;21.164;2023-12-29T01:38:51;5.30;99.90
18317;DHT22;9284;52.298;21.164;2023-12-29T01:41:20;4.90;99.90
18317;DHT22;9284;52.298;21.164;2023-12-29T01:44:20;4.90;99.90
18317;DHT22;9284;52.298;21.164;2023-12-29T01:46:50;4.80;99.90
18317;DHT22;9284;52.298;21.164;2023-12-29T01:49:19;4.80;99.90
18317;DHT22;9284;52.298;21.164;2023-12-29T01:51:52;4.70;1.00
18317;DHT22;9284;52.298;21.164;2023-12-29T01:54:22;4.70;1.00
18317;DHT22;9284;52.298;21.164;2023-12-29T01:56:52;4.40;1.00
18317;DHT22;9284;52.298;21.164;2023-12-29T01:59:23;4.30;93.30
18317;DHT22;9284;52.298;21.164;2023-12-29T02:01:54;4.20;99.90
18317;DHT22;9284;52.298;21.164;2023-12-29T02:04:24;4.20;99.90
18317;DHT22;9284;52.298;21.164;2023-12-29T02:06:55;4.10;1.00
18317;DHT22;9284;52.298;21.164;2023-12-29T02:09:25;4.10;1.00
18317;DHT22;9284;52.298;21.164;2023-12-29T02:11:54;4.10;1.00
18317;DHT22;9284;52.298;21.164;2023-12-29T02:14:23;4.00;1.00
18317;DHT22;9284;52.298;21.164;2023-12-29T02:16:58;3.90;11.20
18317;DHT22;9284;52.298;21.164;2023-12-29T02:19:37;3.80;92.10
18317;DHT22;9284;52.298;21.164;2023-12-29T02:22:09;3.90;99.90
18317;DHT22;9284;52.298;21.164;2023-12-29T02:24:39;3.70;1.00
18317;DHT22;9284;52.298;21.164;2023-12-29T02:27:22;3.70;1.00
18317;DHT22;9284;52.298;21.164;2023-12-29T02:30:06;3.60;1.00
18317;DHT22;9284;52.298;21.164;2023-12-29T02:32:39;3.50;80.60
18317;DHT22;9284;52.298;21.164;2023-12-29T02:35:10;3.50;99.90
18317;DHT22;9284;52.298;21.164;2023-12-29T02:37:39;3.50;99.90
18317;DHT22;9284;52.298;21.164;2023-12-29T02:40:10;3.30;99.90
18317;DHT22;9284;52.298;21.164;2023-12-29T02:42:44;3.30;1.00
18317;DHT22;9284;52.298;21.164;2023-12-29T02:45:14;3.40;1.00
18317;DHT22;9284;52.298;21.164;2023-12-29T02:47:42;3.10;1.00
18317;DHT22;9284;52.298;21.164;2023-12-29T02:50:12;3.10;15.90
18317;DHT22;9284;52.298;21.164;2023-12-29T02:52:40;3.40;99.90
18317;DHT22;9284;52.298;21.164;2023-12-29T02:55:09;3.20;1.00
18317;DHT22;9284;52.298;21.164;2023-12-29T02:57:37;3.00;1.00
18317;DHT22;9284;52.298;21.164;2023-12-29T03:00:08;2.90;1.00
18317;DHT22;9284;52.298;21.164;2023-12-29T03:02:36;2.80;1.00
18317;DHT22;9284;52.298;21.164;2023-12-29T03:05:06;2.90;99.90
18317;DHT22;9284;52.298;21.164;2023-12-29T03:07:35;2.80;99.90
18317;DHT22;9284;52.298;21.164;2023-12-29T03:10:04;2.70;99.90
18317;DHT22;9284;52.298;21.164;2023-12-29T03:12:33;2.70;1.00
18317;DHT22;9284;52.298;21.164;2023-12-29T03:15:01;2.60;1.00
18317;DHT22;9284;52.298;21.164;2023-12-29T03:17:31;2.60;99.90
18317;DHT22;9284;52.298;21.164;2023-12-29T03:20:01;3.10;1.00
18317;DHT22;9284;52.298;21.164;2023-12-29T03:22:37;2.60;99.90
18317;DHT22;9284;52.298;21.164;2023-12-29T03:25:06;2.70;1.00
18317;DHT22;9284;52.298;21.164;2023-12-29T03:27:35;2.60;97.50
18317;DHT22;9284;52.298;21.164;2023-12-29T03:30:04;2.80;99.90
18317;DHT22;9284;52.298;21.164;2023-12-29T03:32:35;2.70;99.90
18317;DHT22;9284;52.298;21.164;2023-12-29T03:35:04;2.70;99.90
18317;DHT22;9284;52.298;21.164;2023-12-29T03:37:33;2.70;99.90
18317;DHT22;9284;52.298;21.164;2023-12-29T03:40:02;2.60;18.70
18317;DHT22;9284;52.298;21.164;2023-12-29T03:42:33;2.70;99.90
18317;DHT22;9284;52.298;21.164;2023-12-29T03:45:01;2.50;99.90
18317;DHT22;9284;52.298;21.164;2023-12-29T03:47:30;2.60;1.00
18317;DHT22;9284;52.298;21.164;2023-12-29T03:50:00;2.60;99.90
18317;DHT22;9284;52.298;21.164;2023-12-29T03:52:29;2.60;99.90
18317;DHT22;9284;52.298;21.164;2023-12-29T03:54:57;2.50;99.90
18317;DHT22;9284;52.298;21.164;2023-12-29T03:57:26;2.40;1.00
18317;DHT22;9284;52.298;21.164;2023-12-29T03:59:55;2.40;1.00
18317;DHT22;9284;52.298;21.164;2023-12-29T04:02:23;2.50;1.00
18317;DHT22;9284;52.298;21.164;2023-12-29T04:04:52;2.40;1.00
18317;DHT22;9284;52.298;21.164;2023-12-29T04:07:22;2.60;1.00
18317;DHT22;9284;52.298;21.164;2023-12-29T04:09:50;2.40;1.00
18317;DHT22;9284;52.298;21.164;2023-12-29T04:12:19;2.30;1.00
18317;DHT22;9284;52.298;21.164;2023-12-29T04:14:47;2.30;1.00
18317;DHT22;9284;52.298;21.164;2023-12-29T04:17:17;2.30;1.00
18317;DHT22;9284;52.298;21.164;2023-12-29T04:19:47;2.40;1.00
18317;DHT22;9284;52.298;21.164;2023-12-29T04:22:15;2.30;1.00
18317;DHT22;9284;52.298;21.164;2023-12-29T04:24:45;2.20;1.00
18317;DHT22;9284;52.298;21.164;2023-12-29T04:27:14;2.20;1.00
18317;DHT22;9284;52.298;21.164;2023-12-29T04:29:43;2.10;45.80
18317;DHT22;9284;52.298;21.164;2023-12-29T04:32:12;2.20;99.90
18317;DHT22;9284;52.298;21.164;2023-12-29T04:34:42;2.40;99.90
18317;DHT22;9284;52.298;21.164;2023-12-29T04:37:11;2.40;1.00
18317;DHT22;9284;52.298;21.164;2023-12-29T04:39:40;2.30;1.00
18317;DHT22;9284;52.298;21.164;2023-12-29T04:42:09;2.30;1.00
18317;DHT22;9284;52.298;21.164;2023-12-29T04:44:39;2.40;1.00
18317;DHT22;9284;52.298;21.164;2023-12-29T04:47:07;2.40;1.00
18317;DHT22;9284;52.298;21.164;2023-12-29T04:49:38;2.30;1.00
18317;DHT22;9284;52.298;21.164;2023-12-29T04:52:07;2.30;1.00
18317;DHT22;9284;52.298;21.164;2023-12-29T04:54:39;2.30;1.00
18317;DHT22;9284;52.298;21.164;2023-12-29T04:57:10;2.40;1.00
18317;DHT22;9284;52.298;21.164;2023-12-29T04:59:40;2.70;1.00
18317;DHT22;9284;52.298;21.164;2023-12-29T05:02:10;2.40;1.00
18317;DHT22;9284;52.298;21.164;2023-12-29T05:04:38;2.40;1.00
18317;DHT22;9284;52.298;21.164;2023-12-29T05:07:09;2.60;1.00
18317;DHT22;9284;52.298;21.164;2023-12-29T05:09:37;2.40;1.00
18317;DHT22;9284;52.298;21.164;2023-12-29T05:12:06;2.40;1.00
18317;DHT22;9284;52.298;21.164;2023-12-29T05:14:36;2.40;1.00
18317;DHT22;9284;52.298;21.164;2023-12-29T05:17:04;2.70;1.00
18317;DHT22;9284;52.298;21.164;2023-12-29T05:19:33;2.50;1.00
18317;DHT22;9284;52.298;21.164;2023-12-29T05:22:02;2.60;1.00
18317;DHT22;9284;52.298;21.164;2023-12-29T05:24:31;2.70;1.00
18317;DHT22;9284;52.298;21.164;2023-12-29T05:26:59;2.70;1.00
18317;DHT22;9284;52.298;21.164;2023-12-29T05:29:30;2.80;1.00
18317;DHT22;9284;52.298;21.164;2023-12-29T05:32:00;2.90;1.00
18317;DHT22;9284;52.298;21.164;2023-12-29T05:34:29;2.90;99.90
18317;DHT22;9284;52.298;21.164;2023-12-29T05:36:57;2.90;99.90
18317;DHT22;9284;52.298;21.164;2023-12-29T05:39:26;2.90;99.90
18317;DHT22;9284;52.298;21.164;2023-12-29T05:41:54;3.00;1.00
18317;DHT22;9284;52.298;21.164;2023-12-29T05:44:23;3.00;1.00
18317;DHT22;9284;52.298;21.164;2023-12-29T05:46:51;3.00;1.00
18317;DHT22;9284;52.298;21.164;2023-12-29T05:49:25;2.90;1.00
18317;DHT22;9284;52.298;21.164;2023-12-29T05:51:54;3.30;1.00
18317;DHT22;9284;52.298;21.164;2023-12-29T05:54:23;3.10;1.00
18317;DHT22;9284;52.298;21.164;2023-12-29T05:56:51;3.10;1.00
18317;DHT22;9284;52.298;21.164;2023-12-29T05:59:20;3.00;1.00
18317;DHT22;9284;52.298;21.164;2023-12-29T06:01:48;3.10;1.00
18317;DHT22;9284;52.298;21.164;2023-12-29T06:04:17;3.20;1.00
18317;DHT22;9284;52.298;21.164;2023-12-29T06:06:47;3.20;1.00
18317;DHT22;9284;52.298;21.164;2023-12-29T06:09:16;3.10;1.00
18317;DHT22;9284;52.298;21.164;2023-12-29T06:11:45;3.10;1.00
18317;DHT22;9284;52.298;21.164;2023-12-29T06:14:13;3.30;1.00
18317;DHT22;9284;52.298;21.164;2023-12-29T06:16:42;3.00;1.00
18317;DHT22;9284;52.298;21.164;2023-12-29T06:19:13;3.20;1.00
18317;DHT22;9284;52.298;21.164;2023-12-29T06:21:42;3.00;1.00
18317;DHT22;9284;52.298;21.164;2023-12-29T06:24:12;3.10;1.00
18317;DHT22;9284;52.298;21.164;2023-12-29T06:26:42;3.10;1.00
18317;DHT22;9284;52.298;21.164;2023-12-29T06:29:11;3.10;1.00
18317;DHT22;9284;52.298;21.164;2023-12-29T06:31:40;3.10;1.00
18317;DHT22;9284;52.298;21.164;2023-12-29T06:34:10;3.10;1.00
18317;DHT22;9284;52.298;21.164;2023-12-29T06:36:39;3.10;1.00
18317;DHT22;9284;52.298;21.164;2023-12-29T06:39:08;3.10;1.00
18317;DHT22;9284;52.298;21.164;2023-12-29T06:41:38;3.10;1.00
18317;DHT22;9284;52.298;21.164;2023-12-29T06:44:07;3.10;1.00
18317;DHT22;9284;52.298;21.164;2023-12-29T06:46:37;3.10;1.00
18317;DHT22;9284;52.298;21.164;2023-12-29T06:49:07;3.10;1.00
18317;DHT22;9284;52.298;21.164;2023-12-29T06:51:36;3.00;1.00
18317;DHT22;9284;52.298;21.164;2023-12-29T06:54:06;3.10;1.00
18317;DHT22;9284;52.298;21.164;2023-12-29T06:56:39;3.00;1.00
18317;DHT22;9284;52.298;21.164;2023-12-29T06:59:07;3.00;1.00
18317;DHT22;9284;52.298;21.164;2023-12-29T07:01:38;2.90;98.60
18317;DHT22;9284;52.298;21.164;2023-12-29T07:04:10;3.20;99.90
18317;DHT22;9284;52.298;21.164;2023-12-29T07:06:39;2.90;99.90
18317;DHT22;9284;52.298;21.164;2023-12-29T07:09:08;3.00;1.00
18317;DHT22;9284;52.298;21.164;2023-12-29T07:11:38;3.00;1.00
18317;DHT22;9284;52.298;21.164;2023-12-29T07:14:07;3.20;1.00
18317;DHT22;9284;52.298;21.164;2023-12-29T07:16:35;3.40;99.90
18317;DHT22;9284;52.298;21.164;2023-12-29T07:19:04;3.80;99.90
18317;DHT22;9284;52.298;21.164;2023-12-29T07:21:32;3.50;65.80
18317;DHT22;9284;52.298;21.164;2023-12-29T07:24:01;3.50;74.40
18317;DHT22;9284;52.298;21.164;2023-12-29T07:26:30;3.70;25.50
18317;DHT22;9284;52.298;21.164;2023-12-29T07:29:03;3.80;1.00
18317;DHT22;9284;52.298;21.164;2023-12-29T07:31:33;4.40;99.90
18317;DHT22;9284;52.298;21.164;2023-12-29T07:34:01;4.00;99.90
18317;DHT22;9284;52.298;21.164;2023-12-29T07:36:30;4.10;1.00
18317;DHT22;9284;52.298;21.164;2023-12-29T07:38:58;4.20;1.00
18317;DHT22;9284;52.298;21.164;2023-12-29T07:41:27;4.30;87.60
18317;DHT22;9284;52.298;21.164;2023-12-29T07:43:58;4.40;1.00
18317;DHT22;9284;52.298;21.164;2023-12-29T07:46:28;4.40;99.90
18317;DHT22;9284;52.298;21.164;2023-12-29T07:48:57;4.50;1.00
18317;DHT22;9284;52.298;21.164;2023-12-29T07:51:25;4.70;99.90
18317;DHT22;9284;52.298;21.164;2023-12-29T07:53:54;4.60;1.00
18317;DHT22;9284;52.298;21.164;2023-12-29T07:56:23;4.60;99.90
18317;DHT22;9284;52.298;21.164;2023-12-29T07:58:51;4.70;1.00
18317;DHT22;9284;52.298;21.164;2023-12-29T08:01:19;4.90;1.00
18317;DHT22;9284;52.298;21.164;2023-12-29T08:03:49;4.80;1.00
18317;DHT22;9284;52.298;21.164;2023-12-29T08:06:20;4.80;99.90
18317;DHT22;9284;52.298;21.164;2023-12-29T08:08:48;4.70;1.00
18317;DHT22;9284;52.298;21.164;2023-12-29T08:11:18;4.80;99.90
18317;DHT22;9284;52.298;21.164;2023-12-29T08:13:48;4.80;99.90
18317;DHT22;9284;52.298;21.164;2023-12-29T08:16:16;4.90;99.90
18317;DHT22;9284;52.298;21.164;2023-12-29T08:18:46;4.80;99.90
18317;DHT22;9284;52.298;21.164;2023-12-29T08:21:20;4.80;99.90
18317;DHT22;9284;52.298;21.164;2023-12-29T08:23:49;4.70;99.90
18317;DHT22;9284;52.298;21.164;2023-12-29T08:26:17;4.80;99.90
18317;DHT22;9284;52.298;21.164;2023-12-29T08:28:46;4.90;99.90
18317;DHT22;9284;52.298;21.164;2023-12-29T08:31:15;5.20;99.90
18317;DHT22;9284;52.298;21.164;2023-12-29T08:33:45;5.00;1.00
18317;DHT22;9284;52.298;21.164;2023-12-29T08:36:17;5.20;1.00
18317;DHT22;9284;52.298;21.164;2023-12-29T08:38:49;5.20;1.00
18317;DHT22;9284;52.298;21.164;2023-12-29T08:41:20;5.10;1.00
18317;DHT22;9284;52.298;21.164;2023-12-29T08:43:48;5.40;1.00
18317;DHT22;9284;52.298;21.164;2023-12-29T08:46:16;5.20;1.00
18317;DHT22;9284;52.298;21.164;2023-12-29T08:48:45;5.30;99.90
18317;DHT22;9284;52.298;21.164;2023-12-29T08:51:14;5.40;99.90
18317;DHT22;9284;52.298;21.164;2023-12-29T08:53:42;5.50;1.00
18317;DHT22;9284;52.298;21.164;2023-12-29T08:56:12;5.50;1.00
18317;DHT22;9284;52.298;21.164;2023-12-29T08:58:42;5.60;1.00
18317;DHT22;9284;52.298;21.164;2023-12-29T09:01:10;5.80;1.00
18317;DHT22;9284;52.298;21.164;2023-12-29T09:03:40;5.60;99.90
18317;DHT22;9284;52.298;21.164;2023-12-29T09:06:09;5.70;99.90
18317;DHT22;9284;52.298;21.164;2023-12-29T09:08:38;5.70;99.90
18317;DHT22;9284;52.298;21.164;2023-12-29T09:11:06;5.80;99.90
18317;DHT22;9284;52.298;21.164;2023-12-29T09:13:36;5.80;26.50
18317;DHT22;9284;52.298;21.164;2023-12-29T09:16:05;5.90;1.00
18317;DHT22;9284;52.298;21.164;2023-12-29T09:18:33;5.90;1.00
18317;DHT22;9284;52.298;21.164;2023-12-29T09:21:03;6.00;1.00
18317;DHT22;9284;52.298;21.164;2023-12-29T09:23:31;6.00;1.00
18317;DHT22;9284;52.298;21.164;2023-12-29T09:26:00;6.00;1.00
18317;DHT22;9284;52.298;21.164;2023-12-29T09:28:30;6.10;99.90
18317;DHT22;9284;52.298;21.164;2023-12-29T09:31:00;6.20;99.90
18317;DHT22;9284;52.298;21.164;2023-12-29T09:33:29;6.40;99.90
18317;DHT22;9284;52.298;21.164;2023-12-29T09:35:57;6.30;99.90
18317;DHT22;9284;52.298;21.164;2023-12-29T09:38:26;6.30;97.00
18317;DHT22;9284;52.298;21.164;2023-12-29T09:40:55;6.30;49.10
18317;DHT22;9284;52.298;21.164;2023-12-29T09:43:27;6.40;1.00
18317;DHT22;9284;52.298;21.164;2023-12-29T09:45:56;6.40;1.00
18317;DHT22;9284;52.298;21.164;2023-12-29T09:48:28;6.60;1.00
18317;DHT22;9284;52.298;21.164;2023-12-29T09:50:58;6.50;1.00
18317;DHT22;9284;52.298;21.164;2023-12-29T09:53:27;6.60;1.00
18317;DHT22;9284;52.298;21.164;2023-12-29T09:55:56;6.70;1.00
18317;DHT22;9284;52.298;21.164;2023-12-29T09:58:25;6.80;1.00
18317;DHT22;9284;52.298;21.164;2023-12-29T10:00:54;6.90;1.00
18317;DHT22;9284;52.298;21.164;2023-12-29T10:03:23;6.90;99.90
18317;DHT22;9284;52.298;21.164;2023-12-29T10:05:54;6.90;99.90
18317;DHT22;9284;52.298;21.164;2023-12-29T10:08:26;7.00;99.90
18317;DHT22;9284;52.298;21.164;2023-12-29T10:10:58;7.30;99.90
18317;DHT22;9284;52.298;21.164;2023-12-29T10:13:29;7.40;97.30
18317;DHT22;9284;52.298;21.164;2023-12-29T10:16:07;7.50;9.80
18317;DHT22;9284;52.298;21.164;2023-12-29T10:18:42;7.70;1.00
18317;DHT22;9284;52.298;21.164;2023-12-29T10:21:21;7.90;1.00
18317;DHT22;9284;52.298;21.164;2023-12-29T10:23:58;8.10;1.00
18317;DHT22;9284;52.298;21.164;2023-12-29T10:26:27;8.30;99.90
18317;DHT22;9284;52.298;21.164;2023-12-29T10:28:56;8.60;99.90
18317;DHT22;9284;52.298;21.164;2023-12-29T10:31:25;8.60;99.90
18317;DHT22;9284;52.298;21.164;2023-12-29T10:34:19;8.90;7.90
18317;DHT22;9284;52.298;21.164;2023-12-29T10:36:49;8.90;1.00
18317;DHT22;9284;52.298;21.164;2023-12-29T10:39:18;9.00;1.00
18317;DHT22;9284;52.298;21.164;2023-12-29T10:41:46;9.00;1.00
18317;DHT22;9284;52.298;21.164;2023-12-29T10:44:16;9.00;1.00
18317;DHT22;9284;52.298;21.164;2023-12-29T10:46:44;9.10;1.00
18317;DHT22;9284;52.298;21.164;2023-12-29T10:49:18;9.10;1.00
18317;DHT22;9284;52.298;21.164;2023-12-29T10:51:49;9.00;1.00
18317;DHT22;9284;52.298;21.164;2023-12-29T10:54:19;9.10;1.00
18317;DHT22;9284;52.298;21.164;2023-12-29T10:57:01;9.30;1.00
18317;DHT22;9284;52.298;21.164;2023-12-29T10:59:30;9.00;1.00
18317;DHT22;9284;52.298;21.164;2023-12-29T11:02:01;9.10;1.00
18317;DHT22;9284;52.298;21.164;2023-12-29T11:04:33;9.20;1.00
18317;DHT22;9284;52.298;21.164;2023-12-29T11:07:03;9.20;1.00
18317;DHT22;9284;52.298;21.164;2023-12-29T11:09:33;9.20;1.00
18317;DHT22;9284;52.298;21.164;2023-12-29T11:12:03;9.20;1.00
18317;DHT22;9284;52.298;21.164;2023-12-29T11:14:31;9.20;1.00
18317;DHT22;9284;52.298;21.164;2023-12-29T11:17:00;9.30;1.00
18317;DHT22;9284;52.298;21.164;2023-12-29T11:19:29;9.30;1.00
18317;DHT22;9284;52.298;21.164;2023-12-29T11:21:57;9.30;1.00
18317;DHT22;9284;52.298;21.164;2023-12-29T11:24:27;9.40;1.00
18317;DHT22;9284;52.298;21.164;2023-12-29T11:27:06;9.50;1.00
18317;DHT22;9284;52.298;21.164;2023-12-29T11:29:35;9.50;1.00
18317;DHT22;9284;52.298;21.164;2023-12-29T11:32:08;9.60;1.00
18317;DHT22;9284;52.298;21.164;2023-12-29T11:34:42;9.60;1.00
18317;DHT22;9284;52.298;21.164;2023-12-29T11:37:18;9.60;1.00
18317;DHT22;9284;52.298;21.164;2023-12-29T11:39:58;9.70;1.00
18317;DHT22;9284;52.298;21.164;2023-12-29T11:46:55;9.50;1.00
18317;DHT22;9284;52.298;21.164;2023-12-29T11:50:00;9.50;1.00
18317;DHT22;9284;52.298;21.164;2023-12-29T11:52:33;9.50;1.00
18317;DHT22;9284;52.298;21.164;2023-12-29T11:55:10;9.60;1.00
18317;DHT22;9284;52.298;21.164;2023-12-29T11:57:39;9.60;1.00
18317;DHT22;9284;52.298;21.164;2023-12-29T12:00:09;9.60;1.00
18317;DHT22;9284;52.298;21.164;2023-12-29T12:02:39;9.60;1.00
18317;DHT22;9284;52.298;21.164;2023-12-29T12:05:09;9.60;1.00
18317;DHT22;9284;52.298;21.164;2023-12-29T12:07:57;9.60;1.00
18317;DHT22;9284;52.298;21.164;2023-12-29T12:10:32;9.60;1.00
18317;DHT22;9284;52.298;21.164;2023-12-29T12:13:01;9.60;1.00
18317;DHT22;9284;52.298;21.164;2023-12-29T12:15:33;9.60;1.00
18317;DHT22;9284;52.298;21.164;2023-12-29T12:18:03;9.60;1.00
18317;DHT22;9284;52.298;21.164;2023-12-29T12:20:35;9.60;1.00
18317;DHT22;9284;52.298;21.164;2023-12-29T12:23:07;9.60;99.90
18317;DHT22;9284;52.298;21.164;2023-12-29T12:25:39;9.60;1.00
18317;DHT22;9284;52.298;21.164;2023-12-29T12:28:09;9.60;1.00
18317;DHT22;9284;52.298;21.164;2023-12-29T12:30:37;9.60;1.00
18317;DHT22;9284;52.298;21.164;2023-12-29T12:33:06;9.50;1.00
18317;DHT22;9284;52.298;21.164;2023-12-29T12:35:38;9.50;1.00
18317;DHT22;9284;52.298;21.164;2023-12-29T12:38:08;9.40;1.00
18317;DHT22;9284;52.298;21.164;2023-12-29T12:40:39;9.40;1.00
18317;DHT22;9284;52.298;21.164;2023-12-29T12:43:08;9.40;1.00
18317;DHT22;9284;52.298;21.164;2023-12-29T12:45:41;9.40;1.00
18317;DHT22;9284;52.298;21.164;2023-12-29T12:48:14;9.50;1.00
18317;DHT22;9284;52.298;21.164;2023-12-29T12:50:47;9.50;1.00
18317;DHT22;9284;52.298;21.164;2023-12-29T12:53:16;9.50;1.00
18317;DHT22;9284;52.298;21.164;2023-12-29T12:55:50;9.50;1.00
18317;DHT22;9284;52.298;21.164;2023-12-29T12:58:21;9.50;1.00
18317;DHT22;9284;52.298;21.164;2023-12-29T13:00:50;9.50;1.00
18317;DHT22;9284;52.298;21.164;2023-12-29T13:03:22;9.50;1.00
18317;DHT22;9284;52.298;21.164;2023-12-29T13:05:51;9.50;1.00
18317;DHT22;9284;52.298;21.164;2023-12-29T13:08:21;9.50;1.00
18317;DHT22;9284;52.298;21.164;2023-12-29T13:11:02;9.50;1.00
18317;DHT22;9284;52.298;21.164;2023-12-29T13:13:37;9.40;1.00
18317;DHT22;9284;52.298;21.164;2023-12-29T13:16:06;9.50;1.00
18317;DHT22;9284;52.298;21.164;2023-12-29T13:18:35;9.50;1.00
18317;DHT22;9284;52.298;21.164;2023-12-29T13:21:04;9.50;1.00
18317;DHT22;9284;52.298;21.164;2023-12-29T13:23:33;9.50;1.00
18317;DHT22;9284;52.298;21.164;2023-12-29T13:26:05;9.50;1.00
18317;DHT22;9284;52.298;21.164;2023-12-29T13:28:36;9.40;1.00
18317;DHT22;9284;52.298;21.164;2023-12-29T13:31:08;9.40;1.00
18317;DHT22;9284;52.298;21.164;2023-12-29T13:33:45;9.30;1.00
18317;DHT22;9284;52.298;21.164;2023-12-29T13:36:22;9.20;1.00
18317;DHT22;9284;52.298;21.164;2023-12-29T13:38:55;9.20;1.00
18317;DHT22;9284;52.298;21.164;2023-12-29T13:41:28;9.10;1.00
18317;DHT22;9284;52.298;21.164;2023-12-29T13:43:59;9.00;1.00
18317;DHT22;9284;52.298;21.164;2023-12-29T13:46:28;9.10;1.00
18317;DHT22;9284;52.298;21.164;2023-12-29T13:48:58;8.90;1.00
18317;DHT22;9284;52.298;21.164;2023-12-29T13:51:27;9.00;1.00
18317;DHT22;9284;52.298;21.164;2023-12-29T13:53:59;9.00;1.00
18317;DHT22;9284;52.298;21.164;2023-12-29T13:56:29;9.20;1.00
18317;DHT22;9284;52.298;21.164;2023-12-29T13:58:57;9.20;1.00
18317;DHT22;9284;52.298;21.164;2023-12-29T14:01:35;9.20;1.00
18317;DHT22;9284;52.298;21.164;2023-12-29T14:04:07;9.20;1.00
18317;DHT22;9284;52.298;21.164;2023-12-29T14:06:39;9.20;1.00
18317;DHT22;9284;52.298;21.164;2023-12-29T14:09:14;9.20;1.00
18317;DHT22;9284;52.298;21.164;2023-12-29T14:11:46;9.10;1.00
18317;DHT22;9284;52.298;21.164;2023-12-29T14:14:20;9.10;1.00
18317;DHT22;9284;52.298;21.164;2023-12-29T14:16:49;9.10;1.00
18317;DHT22;9284;52.298;21.164;2023-12-29T14:19:17;9.10;1.00
18317;DHT22;9284;52.298;21.164;2023-12-29T14:21:48;9.00;1.00
18317;DHT22;9284;52.298;21.164;2023-12-29T14:24:18;9.00;1.00
18317;DHT22;9284;52.298;21.164;2023-12-29T14:26:55;8.90;1.00
18317;DHT22;9284;52.298;21.164;2023-12-29T14:29:27;8.80;1.00
18317;DHT22;9284;52.298;21.164;2023-12-29T14:31:55;8.70;1.00
18317;DHT22;9284;52.298;21.164;2023-12-29T14:34:24;8.80;1.00
18317;DHT22;9284;52.298;21.164;2023-12-29T14:36:52;8.80;1.00
18317;DHT22;9284;52.298;21.164;2023-12-29T14:39:20;8.80;1.00
18317;DHT22;9284;52.298;21.164;2023-12-29T14:41:49;8.90;1.00
18317;DHT22;9284;52.298;21.164;2023-12-29T14:44:21;9.00;1.00
18317;DHT22;9284;52.298;21.164;2023-12-29T14:46:51;9.30;1.00
18317;DHT22;9284;52.298;21.164;2023-12-29T14:49:19;9.20;1.00
18317;DHT22;9284;52.298;21.164;2023-12-29T14:51:47;9.30;1.00
18317;DHT22;9284;52.298;21.164;2023-12-29T14:54:16;9.10;1.00
18317;DHT22;9284;52.298;21.164;2023-12-29T14:56:44;9.10;1.00
18317;DHT22;9284;52.298;21.164;2023-12-29T14:59:12;9.20;1.00
18317;DHT22;9284;52.298;21.164;2023-12-29T15:01:42;9.20;1.00
18317;DHT22;9284;52.298;21.164;2023-12-29T15:04:10;9.10;1.00
18317;DHT22;9284;52.298;21.164;2023-12-29T15:06:41;9.10;1.00
18317;DHT22;9284;52.298;21.164;2023-12-29T15:09:10;9.10;1.00
18317;DHT22;9284;52.298;21.164;2023-12-29T15:11:38;9.00;1.00
18317;DHT22;9284;52.298;21.164;2023-12-29T15:14:06;8.90;1.00
18317;DHT22;9284;52.298;21.164;2023-12-29T15:16:35;9.00;1.00
18317;DHT22;9284;52.298;21.164;2023-12-29T15:19:04;9.10;1.00
18317;DHT22;9284;52.298;21.164;2023-12-29T15:21:35;9.10;1.00
18317;DHT22;9284;52.298;21.164;2023-12-29T15:24:04;9.00;1.00
18317;DHT22;9284;52.298;21.164;2023-12-29T15:26:32;9.00;1.00
18317;DHT22;9284;52.298;21.164;2023-12-29T15:29:00;9.10;1.00
18317;DHT22;9284;52.298;21.164;2023-12-29T15:31:29;8.90;1.00
18317;DHT22;9284;52.298;21.164;2023-12-29T15:33:58;8.80;1.00
18317;DHT22;9284;52.298;21.164;2023-12-29T15:36:28;8.80;1.00
18317;DHT22;9284;52.298;21.164;2023-12-29T15:38:56;8.60;1.00
18317;DHT22;9284;52.298;21.164;2023-12-29T15:41:25;8.60;1.00
18317;DHT22;9284;52.298;21.164;2023-12-29T15:43:53;8.70;1.00
18317;DHT22;9284;52.298;21.164;2023-12-29T15:46:21;8.60;1.00
18317;DHT22;9284;52.298;21.164;2023-12-29T15:48:50;8.50;1.00
18317;DHT22;9284;52.298;21.164;2023-12-29T15:51:18;8.50;1.00
18317;DHT22;9284;52.298;21.164;2023-12-29T15:53:48;8.50;1.00
18317;DHT22;9284;52.298;21.164;2023-12-29T15:56:17;8.60;1.00
18317;DHT22;9284;52.298;21.164;2023-12-29T15:58:46;8.50;1.00
18317;DHT22;9284;52.298;21.164;2023-12-29T16:01:21;8.40;1.00
18317;DHT22;9284;52.298;21.164;2023-12-29T16:03:52;8.40;1.00
18317;DHT22;9284;52.298;21.164;2023-12-29T16:06:23;8.40;1.00
18317;DHT22;9284;52.298;21.164;2023-12-29T16:08:53;8.30;8.70
18317;DHT22;9284;52.298;21.164;2023-12-29T16:11:24;8.50;6.90
18317;DHT22;9284;52.298;21.164;2023-12-29T16:13:54;8.40;1.00
18317;DHT22;9284;52.298;21.164;2023-12-29T16:16:24;8.30;1.40
18317;DHT22;9284;52.298;21.164;2023-12-29T16:18:57;8.30;10.70
18317;DHT22;9284;52.298;21.164;2023-12-29T16:21:26;8.30;39.60